Time;durP1;ratioP1;P1;durP2;ratioP2;P2;SDS_P1;SDS_P2;PMS_P1;PMS_P2;Temp;Humidity;BMP_temperature;BMP_pressure;BME280_temperature;BME280_humidity;BME280_pressure;Samples;Min_cycle;Max_cycle;Signal;HPM_P1;HPM_P2
2022/01/13 00:02:03;;;;;;;92.53;30.23;;;;;;;4.74;100.00;103926.22;4713620;30;20064;-81
2022/01/13 00:04:32;;;;;;;126.30;34.33;;;;;;;4.73;100.00;103921.81;4727794;30;20060;-82
2022/01/13 00:07:00;;;;;;;120.05;32.97;;;;;;;4.74;100.00;103920.09;4718875;30;20287;-82
2022/01/13 00:09:29;;;;;;;117.05;34.60;;;;;;;4.73;100.00;103923.50;4721722;30;20048;-81
2022/01/13 00:11:58;;;;;;;112.55;32.63;;;;;;;4.72;100.00;103933.03;4713067;30;20061;-81
2022/01/13 00:14:40;;;;;;;118.65;33.97;;;;;;;4.72;100.00;103935.63;4729538;30;20036;-81
2022/01/13 00:17:27;;;;;;;125.18;35.50;;;;;;;4.73;100.00;103941.81;4706719;30;20405;-82
2022/01/13 00:25:43;;;;;;;112.85;32.42;;;;;;;4.69;100.00;103925.88;4702460;30;20067;-82
2022/01/13 00:28:20;;;;;;;108.45;30.67;;;;;;;4.70;100.00;103934.63;4719626;30;20044;-81
2022/01/13 00:30:54;;;;;;;87.45;28.33;;;;;;;4.69;100.00;103936.34;4714857;30;20052;-81
2022/01/13 00:33:25;;;;;;;111.22;32.78;;;;;;;4.68;100.00;103933.59;4731129;30;20048;-82
2022/01/13 00:35:57;;;;;;;106.55;28.40;;;;;;;4.68;100.00;103936.22;4745820;30;20056;-81
2022/01/13 00:38:30;;;;;;;122.35;31.13;;;;;;;4.67;100.00;103927.47;4720580;30;20056;-82
2022/01/13 00:40:59;;;;;;;127.47;31.52;;;;;;;4.68;100.00;103928.38;4712765;30;20439;-83
2022/01/13 00:43:28;;;;;;;131.13;33.15;;;;;;;4.67;100.00;103927.47;4717711;30;20063;-83
2022/01/13 00:45:56;;;;;;;130.63;33.33;;;;;;;4.68;100.00;103931.88;4709583;30;20732;-81
2022/01/13 00:48:25;;;;;;;144.00;32.28;;;;;;;4.67;100.00;103926.56;4718177;30;20059;-81
2022/01/13 00:50:53;;;;;;;140.73;31.95;;;;;;;4.67;100.00;103922.25;4723808;30;20048;-81
2022/01/13 00:53:22;;;;;;;125.13;27.65;;;;;;;4.68;100.00;103921.44;4724638;30;20055;-81
2022/01/13 00:55:59;;;;;;;119.35;30.83;;;;;;;4.66;100.00;103920.41;4743901;30;20052;-82
2022/01/13 00:58:31;;;;;;;142.73;32.25;;;;;;;4.67;100.00;103919.63;4709680;30;20067;-82
2022/01/13 01:01:02;;;;;;;149.25;34.80;;;;;;;4.67;100.00;103922.25;4710509;30;20286;-82
2022/01/13 01:03:31;;;;;;;;;;;;;;;4.66;100.00;103917.78;4695136;30;20534;-81
2022/01/13 01:06:03;;;;;;;148.63;32.88;;;;;;;4.66;100.00;103906.44;4731322;30;19926;-82
2022/01/13 01:08:33;;;;;;;143.48;32.90;;;;;;;4.65;100.00;103910.78;4709214;30;20040;-81
2022/01/13 01:11:03;;;;;;;138.90;32.87;;;;;;;4.63;100.00;103909.75;4728055;30;20654;-81
2022/01/13 01:13:33;;;;;;;151.88;32.72;;;;;;;4.63;100.00;103924.47;4717373;30;20115;-83
2022/01/13 01:16:07;;;;;;;136.02;30.58;;;;;;;4.59;100.00;103923.34;4714652;30;20048;-83
2022/01/13 01:29:09;;;;;;;119.45;25.92;;;;;;;4.47;100.00;103919.78;4717531;30;20368;-80
2022/01/13 01:31:45;;;;;;;129.60;26.17;;;;;;;4.44;100.00;103920.47;4713024;30;20055;-81
2022/01/13 01:36:45;;;;;;;128.25;26.85;;;;;;;4.43;100.00;103921.25;4716074;30;20044;-82
2022/01/13 01:39:14;;;;;;;137.43;29.98;;;;;;;4.43;100.00;103920.34;4721312;30;20266;-80
2022/01/13 01:41:45;;;;;;;161.18;30.92;;;;;;;4.43;100.00;103916.03;4701566;30;20053;-80
2022/01/13 01:44:18;;;;;;;157.10;31.58;;;;;;;4.43;100.00;103917.75;4719515;30;20056;-81
2022/01/13 01:46:48;;;;;;;138.10;26.88;;;;;;;4.42;100.00;103914.22;4746188;30;20676;-80
2022/01/13 01:49:20;;;;;;;123.18;23.52;;;;;;;4.41;100.00;103916.72;4676539;30;20040;-80
2022/01/13 01:51:52;;;;;;;139.15;26.65;;;;;;;4.41;100.00;103914.09;4702254;30;20052;-80
2022/01/13 01:54:21;;;;;;;166.88;25.88;;;;;;;4.41;100.00;103914.09;4718259;30;24472;-80
2022/01/13 01:56:50;;;;;;;191.18;28.38;;;;;;;4.41;100.00;103909.78;4715088;30;20068;-82
2022/01/13 01:59:23;;;;;;;132.05;24.17;;;;;;;4.40;100.00;103910.56;4694468;30;20055;-82
2022/01/13 02:01:52;;;;;;;148.60;28.25;;;;;;;4.40;100.00;103920.09;4707736;30;20063;-81
2022/01/13 02:04:24;;;;;;;103.43;23.30;;;;;;;4.41;100.00;103906.28;4722264;30;20056;-82
2022/01/13 02:06:55;;;;;;;145.77;24.88;;;;;;;4.40;100.00;103912.28;4745692;30;20060;-81
2022/01/13 02:09:23;;;;;;;148.30;27.13;;;;;;;4.38;100.00;103909.53;4681454;30;20242;-80
2022/01/13 02:11:56;;;;;;;158.77;24.10;;;;;;;4.39;100.00;103911.38;4706029;30;20044;-80
2022/01/13 02:16:59;;;;;;;129.75;25.55;;;;;;;4.38;100.00;103900.81;4714299;30;20048;-80
2022/01/13 02:19:29;;;;;;;125.53;25.75;;;;;;;4.37;100.00;103883.34;4699462;30;20055;-82
2022/01/13 02:21:59;;;;;;;155.93;29.95;;;;;;;4.37;100.00;103885.94;4722410;30;20072;-83
2022/01/13 02:24:27;;;;;;;150.43;29.80;;;;;;;4.38;100.00;103885.13;4699290;30;20177;-81
2022/01/13 02:26:56;;;;;;;172.80;30.42;;;;;;;4.36;100.00;103877.19;4702194;30;20057;-82
2022/01/13 02:29:25;;;;;;;164.93;32.13;;;;;;;4.37;100.00;103881.63;4713999;30;20277;-81
2022/01/13 02:31:53;;;;;;;187.43;31.85;;;;;;;4.38;100.00;103886.03;4705094;30;20059;-81
2022/01/13 02:34:22;;;;;;;158.23;31.40;;;;;;;4.38;100.00;103892.97;4728650;30;20521;-81
2022/01/13 02:36:56;;;;;;;167.27;31.83;;;;;;;4.37;100.00;103889.47;4709166;30;20056;-82
2022/01/13 02:39:27;;;;;;;;;;;;;;;4.36;100.00;103887.63;4705372;30;20720;-82
2022/01/13 02:41:57;;;;;;;214.73;36.67;;;;;;;4.36;100.00;103886.72;4726329;30;24019;-81
2022/01/13 02:44:26;;;;;;;201.48;36.35;;;;;;;4.36;100.00;103881.50;4729297;30;20055;-81
2022/01/13 02:47:05;;;;;;;203.35;36.30;;;;;;;4.37;100.00;103899.00;4722616;30;20579;-81
2022/01/13 02:49:33;;;;;;;198.95;37.10;;;;;;;4.36;100.00;103891.94;4711242;30;20052;-81
2022/01/13 02:52:02;;;;;;;175.32;33.42;;;;;;;4.36;100.00;103886.72;4693530;30;20044;-81
2022/01/13 02:54:31;;;;;;;159.52;34.45;;;;;;;4.35;100.00;103885.81;4700633;30;20068;-83
2022/01/13 02:56:59;;;;;;;145.57;32.88;;;;;;;4.34;100.00;103883.09;4728564;30;20056;-80
2022/01/13 02:59:28;;;;;;;171.07;35.78;;;;;;;4.34;100.00;103878.75;4704824;30;20400;-81
2022/01/13 03:01:56;;;;;;;193.85;35.35;;;;;;;4.34;100.00;103873.53;4746877;30;20052;-81
2022/01/13 03:04:26;;;;;;;183.45;36.60;;;;;;;4.34;100.00;103872.63;4761183;30;20052;-81
2022/01/13 03:06:54;;;;;;;184.35;36.20;;;;;;;4.35;100.00;103870.16;4720353;30;20328;-82
2022/01/13 03:09:23;;;;;;;197.43;36.30;;;;;;;4.35;100.00;103869.22;4710793;30;20051;-81
2022/01/13 03:11:51;;;;;;;173.10;35.42;;;;;;;4.35;100.00;103880.59;4702461;30;20040;-81
2022/01/13 03:14:20;;;;;;;186.20;36.72;;;;;;;4.33;100.00;103884.78;4706899;30;20407;-81
2022/01/13 03:16:48;;;;;;;196.77;36.88;;;;;;;4.33;100.00;103882.19;4703077;30;20640;-80
2022/01/13 03:19:16;;;;;;;220.23;38.30;;;;;;;4.32;100.00;103869.91;4751880;30;20116;-81
2022/01/13 03:21:45;;;;;;;209.32;37.80;;;;;;;4.34;100.00;103870.03;4693619;30;20146;-80
2022/01/13 03:24:13;;;;;;;187.05;36.60;;;;;;;4.33;100.00;103863.91;4722010;30;20051;-81
2022/01/13 03:26:44;;;;;;;217.43;38.65;;;;;;;4.33;100.00;103866.53;4721084;30;20061;-80
2022/01/13 03:31:45;;;;;;;203.02;36.25;;;;;;;4.36;100.00;103855.38;4728304;30;20152;-81
2022/01/13 03:34:15;;;;;;;188.63;35.30;;;;;;;4.36;100.00;103855.38;4720349;30;20044;-83
2022/01/13 03:36:44;;;;;;;207.23;38.42;;;;;;;4.37;100.00;103849.41;4740386;30;20742;-80
2022/01/13 03:39:13;;;;;;;193.48;34.25;;;;;;;4.38;100.00;103856.41;4709972;30;20054;-81
2022/01/13 03:41:42;;;;;;;188.32;36.40;;;;;;;4.38;100.00;103857.31;4627792;30;20181;-81
2022/01/13 03:44:18;;;;;;;267.13;41.78;;;;;;;4.40;100.00;103853.13;4750390;30;20055;-81
2022/01/13 03:46:46;;;;;;;220.15;40.78;;;;;;;4.41;100.00;103851.44;4731336;30;20067;-81
2022/01/13 03:49:15;;;;;;;203.50;38.70;;;;;;;4.43;100.00;103855.06;4691208;30;20056;-81
2022/01/13 03:52:23;;;;;;;181.07;34.83;;;;;;;4.43;100.00;103852.47;4722503;30;20044;-81
2022/01/13 03:55:29;;;;;;;152.05;32.60;;;;;;;4.44;100.00;103854.25;4713629;30;20194;-81
2022/01/13 03:58:16;;;;;;;177.13;37.03;;;;;;;4.45;100.00;103850.88;4747714;30;20048;-80
2022/01/13 04:01:22;;;;;;;179.93;38.13;;;;;;;4.46;100.00;103837.00;4720385;30;20044;-81
2022/01/13 04:03:50;;;;;;;186.15;38.05;;;;;;;4.47;100.00;103839.75;4713842;30;20553;-82
2022/01/13 04:06:22;;;;;;;161.10;32.20;;;;;;;4.49;100.00;103840.75;4725648;30;20052;-80
2022/01/13 04:08:54;;;;;;;158.15;33.47;;;;;;;4.47;100.00;103841.44;4734580;30;20280;-80
2022/01/13 04:11:28;;;;;;;198.50;37.72;;;;;;;4.48;100.00;103848.50;4689673;30;20052;-80
2022/01/13 04:14:01;;;;;;;169.43;35.08;;;;;;;4.48;100.00;103841.56;4732101;30;20052;-80
2022/01/13 04:16:33;;;;;;;180.20;36.58;;;;;;;4.51;100.00;103842.59;4712134;30;20062;-81
2022/01/13 04:19:06;;;;;;;189.32;38.30;;;;;;;4.53;100.00;103843.63;4750103;30;20056;-80
2022/01/13 04:21:38;;;;;;;190.65;38.47;;;;;;;4.53;100.00;103839.28;4714820;30;20036;-81
2022/01/13 04:24:11;;;;;;;170.00;31.05;;;;;;;4.55;100.00;103831.59;4748049;30;20066;-81
2022/01/13 04:26:42;;;;;;;173.77;33.28;;;;;;;4.56;100.00;103836.03;4726441;30;20048;-82
2022/01/13 04:31:41;;;;;;;153.55;31.77;;;;;;;4.57;100.00;103835.22;4727464;30;20056;-80
2022/01/13 04:34:11;;;;;;;189.93;34.60;;;;;;;4.59;100.00;103831.00;4717387;30;20060;-82
2022/01/13 04:36:40;;;;;;;150.88;32.22;;;;;;;4.59;100.00;103833.63;4736664;30;20054;-83
2022/01/13 04:39:09;;;;;;;187.48;34.80;;;;;;;4.57;100.00;103830.91;4731786;30;20380;-80
2022/01/13 04:41:43;;;;;;;181.63;35.30;;;;;;;4.57;100.00;103832.59;4705672;30;21354;-83
2022/01/13 04:44:14;;;;;;;152.32;32.08;;;;;;;4.56;100.00;103826.47;4720610;30;20067;-82
2022/01/13 04:46:44;;;;;;;205.52;37.42;;;;;;;4.56;100.00;103830.81;4735317;30;20056;-81
2022/01/13 04:49:13;;;;;;;146.83;28.23;;;;;;;4.55;100.00;103832.47;4735321;30;20052;-81
2022/01/13 04:51:41;;;;;;;211.45;38.25;;;;;;;4.54;100.00;103848.03;4728331;30;20313;-81
2022/01/13 04:54:10;;;;;;;211.52;35.83;;;;;;;4.52;100.00;103845.34;4741993;30;20542;-80
2022/01/13 04:59:08;;;;;;;184.70;33.30;;;;;;;4.53;100.00;103844.53;4739230;30;20056;-80
2022/01/13 05:01:37;;;;;;;168.43;31.48;;;;;;;4.53;100.00;103848.84;4723673;30;20053;-81
2022/01/13 05:04:07;;;;;;;191.15;32.72;;;;;;;4.51;100.00;103843.50;4719482;30;20419;-80
2022/01/13 05:06:35;;;;;;;183.55;33.90;;;;;;;4.52;100.00;103861.00;4732033;30;20419;-81
2022/01/13 05:09:04;;;;;;;172.68;31.58;;;;;;;4.53;100.00;103864.50;4726606;30;20044;-80
2022/01/13 05:11:32;;;;;;;173.15;32.83;;;;;;;4.50;100.00;103859.97;4718211;30;20507;-80
2022/01/13 05:14:01;;;;;;;180.02;32.97;;;;;;;4.51;100.00;103856.56;4692754;30;20055;-80
2022/01/13 05:17:35;;;;;;;247.20;35.63;;;;;;;4.52;100.00;103841.78;4716352;30;20048;-82
2022/01/13 05:19:38;;;;;;;187.60;33.55;;;;;;;4.52;100.00;103847.94;4708289;30;20055;-80
2022/01/13 05:24:45;;;;;;;226.65;34.83;;;;;;;4.53;100.00;103841.00;4715212;30;20261;-81
2022/01/13 05:27:14;;;;;;;202.07;35.55;;;;;;;4.53;100.00;103849.75;4727745;30;20053;-84
2022/01/13 05:29:42;;;;;;;244.13;38.05;;;;;;;4.54;100.00;103851.56;4679976;30;20040;-81
2022/01/13 05:32:11;;;;;;;188.93;33.47;;;;;;;4.54;100.00;103845.41;4681392;30;20040;-80
2022/01/13 05:34:39;;;;;;;198.20;34.78;;;;;;;4.55;100.00;103848.16;4702165;30;20105;-80
2022/01/13 05:37:12;;;;;;;231.65;36.35;;;;;;;4.56;100.00;103828.19;4704468;30;20511;-80
2022/01/13 05:39:40;;;;;;;223.73;36.97;;;;;;;4.55;100.00;103840.31;4718281;30;20052;-82
2022/01/13 05:42:08;;;;;;;232.52;37.35;;;;;;;4.55;100.00;103827.25;4716062;30;20411;-82
2022/01/13 05:44:38;;;;;;;267.70;39.50;;;;;;;4.56;100.00;103828.19;4686929;30;20052;-83
2022/01/13 05:47:10;;;;;;;243.20;38.70;;;;;;;4.57;100.00;103830.00;4713120;30;20048;-83
2022/01/13 05:49:40;;;;;;;222.35;35.72;;;;;;;4.57;100.00;103828.28;4701719;30;20049;-81
2022/01/13 05:52:11;;;;;;;209.90;36.40;;;;;;;4.59;100.00;103828.41;4686603;30;20060;-81
2022/01/13 05:54:40;;;;;;;260.10;38.85;;;;;;;4.59;100.00;103825.78;4696437;30;20072;-83
2022/01/13 05:57:08;;;;;;;231.65;38.20;;;;;;;4.59;100.00;103823.19;4700909;30;20056;-80
2022/01/13 05:59:37;;;;;;;207.70;35.65;;;;;;;4.60;100.00;103819.78;4673561;30;20080;-81
2022/01/13 06:02:06;;;;;;;235.40;39.08;;;;;;;4.61;100.00;103822.53;4715232;30;20079;-82
2022/01/13 06:04:34;;;;;;;206.02;35.97;;;;;;;4.62;100.00;103821.72;4706880;30;20052;-81
2022/01/13 06:07:03;;;;;;;227.77;37.67;;;;;;;4.64;100.00;103824.44;4701055;30;20056;-81
2022/01/13 06:09:31;;;;;;;228.00;36.20;;;;;;;4.64;100.00;103827.97;4693694;30;20080;-83
2022/01/13 06:12:02;;;;;;;224.63;36.00;;;;;;;4.66;100.00;103821.16;4698239;30;20059;-81
2022/01/13 06:14:31;;;;;;;234.60;36.25;;;;;;;4.67;100.00;103816.84;4680014;30;20392;-82
2022/01/13 06:16:59;;;;;;;242.73;37.67;;;;;;;4.68;100.00;103819.56;4716548;30;20040;-81
2022/01/13 06:19:28;;;;;;;218.50;36.78;;;;;;;4.69;100.00;103820.50;4710169;30;20489;-81
2022/01/13 06:21:56;;;;;;;211.90;36.30;;;;;;;4.71;100.00;103831.03;4717061;30;20052;-81
2022/01/13 06:24:24;;;;;;;233.57;38.97;;;;;;;4.72;100.00;103820.69;4697496;30;20059;-82
2022/01/13 06:26:53;;;;;;;231.70;37.72;;;;;;;4.74;100.00;103828.66;4688049;30;20607;-80
2022/01/13 06:29:22;;;;;;;219.15;37.90;;;;;;;4.76;100.00;103821.84;4698879;30;20037;-82
2022/01/13 06:31:50;;;;;;;290.88;42.92;;;;;;;4.77;100.00;103816.72;4658399;30;20044;-82
2022/01/13 06:34:18;;;;;;;198.55;32.97;;;;;;;4.77;100.00;103818.44;4673572;30;20048;-81
2022/01/13 06:36:47;;;;;;;229.43;41.75;;;;;;;4.78;100.00;103812.41;4673185;30;20062;-80
2022/01/13 06:39:15;;;;;;;211.93;36.65;;;;;;;4.79;100.00;103816.84;4704551;30;20385;-81
2022/01/13 06:41:45;;;;;;;207.18;37.75;;;;;;;4.80;100.00;103818.66;4694734;30;20278;-81
2022/01/13 06:44:13;;;;;;;238.18;40.88;;;;;;;4.81;100.00;103824.00;4696820;30;20045;-81
2022/01/13 06:46:42;;;;;;;239.18;39.00;;;;;;;4.82;100.00;103811.84;4678742;30;20198;-82
2022/01/13 06:49:10;;;;;;;242.02;41.55;;;;;;;4.85;100.00;103806.84;4712506;30;20512;-81
2022/01/13 06:51:39;;;;;;;179.95;33.97;;;;;;;4.86;100.00;103799.13;4709683;30;20072;-81
2022/01/13 06:54:07;;;;;;;195.52;36.92;;;;;;;4.87;100.00;103811.38;4666152;30;20044;-81
2022/01/13 06:56:36;;;;;;;181.68;35.58;;;;;;;4.89;100.00;103806.28;4681554;30;20056;-80
2022/01/13 06:59:10;;;;;;;229.13;42.72;;;;;;;4.90;100.00;103805.50;4663466;30;20056;-80
2022/01/13 07:01:40;;;;;;;226.20;41.97;;;;;;;4.92;100.00;103803.91;4688367;30;20052;-81
2022/01/13 07:04:10;;;;;;;222.65;40.33;;;;;;;4.92;100.00;103803.00;4712731;30;20052;-81
2022/01/13 07:06:40;;;;;;;238.57;40.80;;;;;;;4.94;100.00;103812.75;4720185;30;20048;-81
2022/01/13 07:09:14;;;;;;;197.35;38.83;;;;;;;4.94;100.00;103801.41;4690219;30;20064;-81
2022/01/13 07:11:44;;;;;;;213.05;40.50;;;;;;;4.95;100.00;103808.44;4691058;30;20458;-81
2022/01/13 07:14:15;;;;;;;166.05;35.35;;;;;;;4.94;100.00;103793.56;4718806;30;20045;-81
2022/01/13 07:16:45;;;;;;;188.52;36.65;;;;;;;4.94;100.00;103797.06;4695209;30;20633;-80
2022/01/13 07:19:15;;;;;;;193.73;36.25;;;;;;;4.94;100.00;103797.06;4690719;30;20412;-83
2022/01/13 07:21:45;;;;;;;191.13;37.97;;;;;;;4.94;100.00;103791.84;4690632;30;20110;-80
2022/01/13 07:24:13;;;;;;;206.45;37.20;;;;;;;4.94;100.00;103802.31;4682205;30;20532;-83
2022/01/13 07:26:42;;;;;;;186.85;37.35;;;;;;;4.93;100.00;103800.47;4672543;30;20063;-81
2022/01/13 07:29:11;;;;;;;183.05;38.13;;;;;;;4.94;100.00;103799.69;4691121;30;20048;-81
2022/01/13 07:31:39;;;;;;;184.73;38.13;;;;;;;4.95;100.00;103803.19;4728296;30;20512;-82
2022/01/13 07:34:08;;;;;;;193.50;37.65;;;;;;;4.94;100.00;103804.91;4668158;30;20051;-82
2022/01/13 07:36:38;;;;;;;209.50;40.90;;;;;;;4.96;100.00;103825.94;4712101;30;20072;-82
2022/01/13 07:39:07;;;;;;;169.48;35.33;;;;;;;4.95;100.00;103825.00;4723221;30;20048;-82
2022/01/13 07:41:37;;;;;;;183.23;37.87;;;;;;;4.96;100.00;103834.69;4694273;30;20063;-82
2022/01/13 07:44:06;;;;;;;156.75;34.92;;;;;;;4.96;100.00;103837.28;4696594;30;20052;-82
2022/01/13 07:46:35;;;;;;;189.02;39.60;;;;;;;4.96;100.00;103834.69;4720627;30;20036;-83
2022/01/13 07:49:04;;;;;;;162.63;34.90;;;;;;;4.97;100.00;103848.66;4718792;30;20041;-81
2022/01/13 07:51:32;;;;;;;186.93;39.38;;;;;;;4.97;100.00;103840.81;4701667;30;20059;-82
2022/01/13 07:54:01;;;;;;;189.48;42.20;;;;;;;4.98;100.00;103835.69;4716420;30;20064;-81
2022/01/13 07:56:30;;;;;;;157.60;37.70;;;;;;;4.99;100.00;103844.44;4697717;30;20050;-81
2022/01/13 07:58:58;;;;;;;160.40;38.83;;;;;;;4.98;100.00;103835.69;4721904;30;20059;-81
2022/01/13 08:01:26;;;;;;;157.60;39.30;;;;;;;5.01;100.00;103835.00;4708242;30;20083;-84
2022/01/13 08:03:55;;;;;;;180.93;42.10;;;;;;;5.02;100.00;103840.34;4690669;30;20052;-83
2022/01/13 08:06:23;;;;;;;145.82;38.17;;;;;;;5.03;100.00;103836.97;4716104;30;20060;-82
2022/01/13 08:08:52;;;;;;;190.63;41.78;;;;;;;5.05;100.00;103824.00;4679828;30;20244;-82
2022/01/13 08:11:20;;;;;;;162.85;37.67;;;;;;;5.07;100.00;103830.25;4733803;30;20512;-82
2022/01/13 08:13:49;;;;;;;185.75;42.40;;;;;;;5.07;100.00;103836.38;4707704;30;20063;-83
2022/01/13 08:16:19;;;;;;;184.18;42.53;;;;;;;5.08;100.00;103822.53;4682022;30;20055;-83
2022/01/13 08:21:35;;;;;;;153.63;39.08;;;;;;;5.12;100.00;103822.75;4700942;30;20079;-81
2022/01/13 08:24:03;;;;;;;148.77;39.78;;;;;;;5.13;100.00;103822.84;4718814;30;20411;-82
2022/01/13 08:26:33;;;;;;;150.48;41.97;;;;;;;5.16;100.00;103827.38;4707409;30;20051;-82
2022/01/13 08:29:03;;;;;;;173.55;42.97;;;;;;;5.17;100.00;103837.97;4718129;30;20055;-81
2022/01/13 08:31:31;;;;;;;183.27;45.40;;;;;;;5.19;100.00;103840.69;4721446;30;20055;-82
2022/01/13 08:34:00;;;;;;;165.82;42.47;;;;;;;5.21;100.00;103834.78;4740966;30;20404;-81
2022/01/13 08:36:30;;;;;;;164.05;43.33;;;;;;;5.22;100.00;103843.53;4711866;30;20056;-83
2022/01/13 08:38:58;;;;;;;179.80;41.30;;;;;;;5.23;100.00;103845.34;4696605;30;20063;-82
2022/01/13 08:41:27;;;;;;;188.32;43.20;;;;;;;5.24;100.00;103842.84;4705413;30;20055;-82
2022/01/13 08:43:55;;;;;;;145.00;39.55;;;;;;;5.26;100.00;103849.09;4697119;30;20052;-81
2022/01/13 08:46:25;;;;;;;168.43;43.17;;;;;;;5.26;100.00;103843.88;4722755;30;20408;-81
2022/01/13 08:48:54;;;;;;;135.30;38.42;;;;;;;5.27;100.00;103840.47;4713881;30;20503;-83
2022/01/13 08:51:22;;;;;;;164.68;43.38;;;;;;;5.28;100.00;103852.72;4710458;30;20128;-82
2022/01/13 08:53:51;;;;;;;170.30;42.55;;;;;;;5.28;100.00;103852.72;4716773;30;20048;-81
2022/01/13 08:56:19;;;;;;;146.35;39.78;;;;;;;5.31;100.00;103861.59;4702766;30;20024;-82
2022/01/13 08:58:48;;;;;;;128.95;38.08;;;;;;;5.31;100.00;103852.03;4683562;30;20506;-81
2022/01/13 09:01:16;;;;;;;151.73;42.88;;;;;;;5.31;100.00;103849.41;4710854;30;20435;-82
2022/01/13 09:03:45;;;;;;;141.63;39.90;;;;;;;5.33;100.00;103844.31;4706251;30;20048;-82
2022/01/13 09:06:14;;;;;;;159.30;41.90;;;;;;;5.32;100.00;103851.25;4709935;30;20419;-82
2022/01/13 09:08:42;;;;;;;163.77;43.38;;;;;;;5.33;100.00;103858.31;4710435;30;20272;-81
2022/01/13 09:11:11;;;;;;;146.50;41.83;;;;;;;5.35;100.00;103847.94;4720673;30;20048;-81
2022/01/13 09:13:40;;;;;;;166.27;42.72;;;;;;;5.33;100.00;103850.47;4719269;30;20071;-82
2022/01/13 09:16:16;;;;;;;171.45;41.85;;;;;;;5.34;100.00;103847.03;4711105;30;20049;-81
2022/01/13 09:21:28;;;;;;;162.68;41.03;;;;;;;5.35;100.00;103843.63;4713424;30;20040;-81
2022/01/13 09:23:56;;;;;;;;;;;;;;;5.33;100.00;103834.78;4745587;30;20067;-82
2022/01/13 09:26:24;;;;;;;142.10;36.60;;;;;;;5.35;100.00;103842.72;4730423;30;19926;-84
2022/01/13 09:28:53;;;;;;;131.82;37.50;;;;;;;5.35;100.00;103843.63;4711436;30;20151;-83
2022/01/13 09:31:22;;;;;;;124.82;36.03;;;;;;;5.34;100.00;103841.81;4722611;30;20052;-82
2022/01/13 09:33:50;;;;;;;126.10;34.33;;;;;;;5.37;100.00;103833.25;4716080;30;20056;-82
2022/01/13 09:36:19;;;;;;;101.72;34.33;;;;;;;5.38;100.00;103837.72;4691607;30;20040;-82
2022/01/13 09:38:50;;;;;;;100.43;31.02;;;;;;;5.37;100.00;103834.19;4698909;30;20048;-82
2022/01/13 09:41:21;;;;;;;105.28;33.20;;;;;;;5.38;100.00;103842.94;4717304;30;20051;-83
2022/01/13 09:43:50;;;;;;;100.88;33.22;;;;;;;5.39;100.00;103844.78;4716712;30;20250;-83
2022/01/13 09:46:19;;;;;;;90.68;31.67;;;;;;;5.40;100.00;103838.72;4704662;30;20051;-82
2022/01/13 09:48:47;;;;;;;87.30;31.33;;;;;;;5.42;100.00;103839.75;4685894;30;20048;-82
2022/01/13 09:51:16;;;;;;;93.70;30.20;;;;;;;5.42;100.00;103844.97;4696141;30;20048;-82
2022/01/13 09:53:44;;;;;;;75.85;30.17;;;;;;;5.43;100.00;103844.19;4680144;30;21051;-82
2022/01/13 09:56:13;;;;;;;74.90;29.05;;;;;;;5.44;100.00;103848.59;4704042;30;20045;-81
2022/01/13 09:58:44;;;;;;;88.90;29.75;;;;;;;5.44;100.00;103838.16;4710955;30;20055;-83
2022/01/13 10:01:13;;;;;;;86.97;31.35;;;;;;;5.44;100.00;103852.16;4706717;30;20052;-81
2022/01/13 10:03:42;;;;;;;99.35;33.17;;;;;;;5.46;100.00;103847.94;4739789;30;20277;-83
2022/01/13 10:06:18;;;;;;;81.78;29.85;;;;;;;5.47;100.00;103847.13;4725165;30;20395;-81
2022/01/13 10:08:51;;;;;;;89.25;30.65;;;;;;;5.50;100.00;103848.16;4688626;30;20315;-81
2022/01/13 10:11:48;;;;;;;74.18;27.63;;;;;;;5.53;100.00;103851.88;4748553;30;20063;-83
2022/01/13 10:16:59;;;;;;;77.50;28.02;;;;;;;5.57;100.00;103839.94;4738724;30;20052;-81
2022/01/13 10:19:42;;;;;;;73.18;28.88;;;;;;;5.54;100.00;103843.25;4707114;30;20055;-82
2022/01/13 10:22:15;;;;;;;88.80;32.00;;;;;;;5.55;100.00;103841.53;4726377;30;20032;-82
2022/01/13 10:24:47;;;;;;;81.68;30.50;;;;;;;5.58;100.00;103842.69;4706336;30;21577;-83
2022/01/13 10:27:21;;;;;;;86.75;31.50;;;;;;;5.60;100.00;103848.03;4712017;30;20049;-82
2022/01/13 10:29:52;;;;;;;101.60;31.58;;;;;;;5.61;100.00;103839.34;4703718;30;20707;-81
2022/01/13 10:32:21;;;;;;;82.85;31.90;;;;;;;5.62;100.00;103838.56;4698530;30;20059;-82
2022/01/13 10:34:57;;;;;;;91.50;30.98;;;;;;;5.61;100.00;103837.66;4684761;30;20655;-83
2022/01/13 10:37:30;;;;;;;71.35;28.42;;;;;;;5.58;100.00;103831.31;4711891;30;20045;-83
2022/01/13 10:40:11;;;;;;;88.30;31.65;;;;;;;5.58;100.00;103832.22;4709344;30;20075;-82
2022/01/13 10:45:22;;;;;;;81.50;29.98;;;;;;;5.53;100.00;103833.59;4726233;30;20392;-83
2022/01/13 10:47:56;;;;;;;80.07;29.88;;;;;;;5.50;100.00;103832.44;4713728;30;20060;-82
2022/01/13 10:50:53;;;;;;;85.25;30.52;;;;;;;5.52;100.00;103831.78;4709586;30;20045;-83
2022/01/13 10:53:30;;;;;;;79.70;30.70;;;;;;;5.52;100.00;103826.56;4715631;30;20060;-83
2022/01/13 10:56:06;;;;;;;74.88;29.30;;;;;;;5.51;100.00;103823.81;4724883;30;20056;-82
2022/01/13 10:58:40;;;;;;;77.18;29.30;;;;;;;5.53;100.00;103819.59;4711813;30;20272;-83
2022/01/13 11:01:12;;;;;;;89.13;30.25;;;;;;;5.54;100.00;103821.41;4729666;30;20064;-83
2022/01/13 11:03:44;;;;;;;79.90;31.90;;;;;;;5.53;100.00;103819.59;4702103;30;21126;-82
2022/01/13 11:06:13;;;;;;;78.85;30.65;;;;;;;5.54;100.00;103818.78;4708324;30;20045;-83
2022/01/13 11:08:45;;;;;;;69.70;31.20;;;;;;;5.56;100.00;103819.84;4695985;30;20265;-83
2022/01/13 11:11:24;;;;;;;71.53;28.75;;;;;;;5.57;100.00;103819.00;4692162;30;20057;-82
2022/01/13 11:13:56;;;;;;;69.88;28.95;;;;;;;5.57;100.00;103819.00;4705253;30;20345;-83
2022/01/13 11:16:25;;;;;;;80.20;32.30;;;;;;;5.57;100.00;103809.44;4715418;30;20060;-82
2022/01/13 11:18:53;;;;;;;73.43;31.23;;;;;;;5.58;100.00;103813.91;4701617;30;20048;-81
2022/01/13 11:21:22;;;;;;;82.93;30.08;;;;;;;5.60;100.00;103811.41;4668822;30;20056;-82
2022/01/13 11:23:51;;;;;;;72.60;30.35;;;;;;;5.62;100.00;103817.66;4715381;30;20057;-82
2022/01/13 11:26:26;;;;;;;84.45;30.50;;;;;;;5.62;100.00;103820.25;4716177;30;20068;-81
2022/01/13 11:28:57;;;;;;;85.35;31.42;;;;;;;5.59;100.00;103809.56;4728189;30;20067;-82
2022/01/13 11:31:26;;;;;;;68.82;29.27;;;;;;;5.59;100.00;103804.34;4734540;30;20052;-82
2022/01/13 11:33:55;;;;;;;76.20;30.65;;;;;;;5.60;100.00;103803.56;4756713;30;20067;-81
2022/01/13 11:36:25;;;;;;;76.18;32.33;;;;;;;5.61;100.00;103806.28;4702554;30;20467;-83
2022/01/13 11:38:56;;;;;;;72.38;30.20;;;;;;;5.62;100.00;103809.78;4706592;30;20044;-83
2022/01/13 11:41:25;;;;;;;75.95;31.77;;;;;;;5.62;100.00;103801.94;4712863;30;20044;-82
2022/01/13 11:44:12;;;;;;;73.95;31.30;;;;;;;5.64;100.00;103796.00;4712542;30;20285;-83
2022/01/13 11:46:50;;;;;;;71.03;29.65;;;;;;;5.64;100.00;103802.97;4733165;30;20059;-81
2022/01/13 11:49:22;;;;;;;69.78;30.45;;;;;;;5.63;100.00;103799.44;4734513;30;20161;-82
2022/01/13 11:51:59;;;;;;;72.72;30.77;;;;;;;5.64;100.00;103801.25;4700155;30;20037;-82
2022/01/13 11:54:36;;;;;;;65.97;29.98;;;;;;;5.65;100.00;103802.16;4720285;30;20530;-82
2022/01/13 11:57:27;;;;;;;69.97;30.90;;;;;;;5.67;100.00;103787.47;4731052;30;20048;-82
2022/01/13 11:59:55;;;;;;;81.90;30.95;;;;;;;5.66;100.00;103786.56;4693271;30;20515;-82
2022/01/13 12:02:27;;;;;;;71.88;30.50;;;;;;;5.66;100.00;103783.94;4752144;30;20124;-81
2022/01/13 12:04:59;;;;;;;68.28;29.40;;;;;;;5.67;100.00;103784.84;4756185;30;20063;-83